Pagrindinis puslapis
METAR-TAF:

METAR-TAF

Oro uostai :

Oranžas, Prancūzija

platuma: 44-08N, ilguma: 004-50E, Aukštis: 60 m

Dabartinis oras

Ataskaita buvo paskelbta 30 minutes, ne 07:00 UTC
Vėjas 2 kt nuo kintamojo kryptimis
Temperatūra 26°C
Drėgmė 61%
Slėgis 1011 hPa
Matomumas 10 km arba daugiau
nėra debesų žemiau 1500 m ir nėra kamuolinių lietaus debesų

METAR: LFMO 200700Z AUTO VRB02KT CAVOK 26/18 Q1011 NOSIG

Laikas: 09:30 (07:30 UTC)

Prognozė

Ataskaita buvo paskelbta 5 valandos ir 30 minutes, ne 02:00 UTC
Prognozė galioja nuo 20 metu 03 UTC su 21 metu 03 UTC
Vėjas 2 kt nuo kintamojo kryptimis
Matomumas 10 km arba daugiau
nėra debesų žemiau 1500 m ir nėra kamuolinių lietaus debesų
Tapsmas
nuo 20 metu 13 UTC su 20 metu 15 UTC
Vėjas 12 kt iš Pietų

TAF: LFMO 200200Z 2003/2103 VRB02KT CAVOK TX38/2015Z TN18/2004Z BECMG 2013/2015 18012KT

Orai ataskaitas ir orų prognozės (METAR, TAF).

turimą stotys yra geltonos ir raudonos taškus žemėlapyje.

Perkelti pele per norėdami pamatyti stoties vardą.

Tada spustelėkite, norėdami matyti oro stebėjimo ir prognozės.

Norėdami pakeisti žemėlapį: spustelėkite ant žalios mygtukų su juodo kryžiaus žemyn,; žalią mygtuką su brūkšneliu, jei norite nutolinti; arba žalių rodyklių gretimoms žemėlapius.


METAR-TAF: